Time;durP1;ratioP1;P1;durP2;ratioP2;P2;SDS_P1;SDS_P2;PMS_P1;PMS_P2;Temp;Humidity;BMP_temperature;BMP_pressure;BME280_temperature;BME280_humidity;BME280_pressure;Samples;Min_cycle;Max_cycle;Signal;HPM_P1;HPM_P2
2022/06/11 00:00:55;;;;;;;4.40;1.33;;;19.30;99.90;;;;;;5065177;28;20035;-57
2022/06/11 00:03:21;;;;;;;5.43;1.70;;;19.30;99.90;;;;;;5070667;28;20024;-56
2022/06/11 00:05:47;;;;;;;4.32;1.17;;;19.30;99.90;;;;;;5070228;28;20035;-54
2022/06/11 00:08:13;;;;;;;4.57;1.75;;;19.30;99.90;;;;;;5069187;28;20037;-55
2022/06/11 00:10:38;;;;;;;6.25;1.40;;;19.20;99.90;;;;;;5067648;28;20457;-57
2022/06/11 00:13:05;;;;;;;10.80;1.90;;;19.20;99.90;;;;;;5069368;28;20039;-55
2022/06/11 00:15:31;;;;;;;7.95;1.90;;;19.20;99.90;;;;;;5064395;28;20020;-58
2022/06/11 00:17:57;;;;;;;5.95;2.17;;;19.30;99.90;;;;;;5070915;28;20398;-57
2022/06/11 00:20:24;;;;;;;5.72;1.58;;;19.20;99.90;;;;;;5062283;28;20385;-54
2022/06/11 00:22:49;;;;;;;4.15;1.75;;;19.20;99.90;;;;;;5071549;28;20021;-57
2022/06/11 00:25:15;;;;;;;2.65;1.17;;;19.20;99.90;;;;;;5071765;28;20025;-54
2022/06/11 00:27:41;;;;;;;9.05;2.28;;;19.20;99.90;;;;;;5068715;28;20053;-54
2022/06/11 00:30:11;;;;;;;7.03;1.77;;;19.20;99.90;;;;;;5067508;28;20043;-54
2022/06/11 00:32:40;;;;;;;3.60;1.42;;;19.10;99.90;;;;;;5053384;28;20082;-55
2022/06/11 00:35:06;;;;;;;8.18;1.92;;;19.10;99.90;;;;;;5069126;28;20410;-56
2022/06/11 00:37:32;;;;;;;2.85;1.63;;;19.10;99.90;;;;;;5066405;28;20518;-57
2022/06/11 00:39:58;;;;;;;3.58;1.40;;;19.00;99.90;;;;;;5067157;28;20041;-57
2022/06/11 00:42:28;;;;;;;4.80;1.90;;;19.00;99.90;;;;;;5070374;28;20426;-54
2022/06/11 00:45:14;;;;;;;10.77;1.60;;;18.90;99.90;;;;;;5068854;28;20028;-54
2022/06/11 00:47:42;;;;;;;4.03;2.15;;;18.90;99.90;;;;;;5056355;28;20356;-55
2022/06/11 00:50:38;;;;;;;6.47;2.20;;;18.90;99.90;;;;;;5065876;28;20038;-58
2022/06/11 00:53:19;;;;;;;3.05;1.70;;;18.90;99.90;;;;;;5063212;28;20063;-55
2022/06/11 00:55:48;;;;;;;4.18;1.85;;;18.80;99.90;;;;;;5069717;28;20453;-57
2022/06/11 00:58:21;;;;;;;6.38;1.95;;;18.80;99.90;;;;;;5069958;28;20032;-57
2022/06/11 01:00:50;;;;;;;5.75;2.08;;;18.70;99.90;;;;;;5068599;28;20086;-57
2022/06/11 01:03:24;;;;;;;5.78;2.10;;;18.80;99.90;;;;;;5065140;28;20027;-56
2022/06/11 01:06:12;;;;;;;3.33;1.92;;;18.80;99.90;;;;;;5068204;28;20028;-54
2022/06/11 01:09:06;;;;;;;10.38;2.08;;;18.70;99.90;;;;;;5068201;28;20055;-55
2022/06/11 01:12:06;;;;;;;3.30;1.60;;;18.70;99.90;;;;;;5069119;28;20024;-56
2022/06/11 01:14:36;;;;;;;4.57;1.90;;;18.70;99.90;;;;;;5069221;28;20024;-54
2022/06/11 01:17:22;;;;;;;5.03;1.95;;;18.70;99.90;;;;;;5068703;28;20021;-54
2022/06/11 01:20:21;;;;;;;4.43;2.13;;;18.80;99.90;;;;;;5068313;28;21902;-54
2022/06/11 01:23:04;;;;;;;10.23;2.22;;;18.80;99.90;;;;;;5067969;28;20031;-58
2022/06/11 01:26:03;;;;;;;3.05;1.70;;;18.80;99.90;;;;;;5070071;28;20086;-54
2022/06/11 01:28:56;;;;;;;9.35;2.05;;;18.80;99.90;;;;;;5070648;28;20028;-54
2022/06/11 01:31:52;;;;;;;4.18;1.58;;;18.80;99.90;;;;;;5068799;28;20032;-56
2022/06/11 01:34:45;;;;;;;6.53;1.77;;;18.80;99.90;;;;;;5066547;28;20032;-57
2022/06/11 01:37:20;;;;;;;7.65;1.83;;;18.80;99.90;;;;;;5068269;28;20033;-55
2022/06/11 01:39:52;;;;;;;5.75;1.90;;;18.90;99.90;;;;;;5068667;28;20565;-55
2022/06/11 01:42:52;;;;;;;2.90;1.63;;;18.90;99.90;;;;;;5068547;28;20438;-55
2022/06/11 01:45:24;;;;;;;8.75;2.13;;;18.90;99.90;;;;;;5054242;28;20246;-55
2022/06/11 01:47:52;;;;;;;5.28;1.98;;;18.90;99.90;;;;;;5071078;28;20036;-54
2022/06/11 01:50:22;;;;;;;8.23;2.25;;;18.70;99.90;;;;;;5069966;28;20055;-55
2022/06/11 01:52:57;;;;;;;7.28;2.10;;;18.70;99.90;;;;;;5068527;28;20094;-54
2022/06/11 01:55:49;;;;;;;6.22;1.95;;;18.60;99.90;;;;;;5069504;28;20044;-54
2022/06/11 01:58:32;;;;;;;9.88;2.13;;;18.50;99.90;;;;;;5069199;28;20095;-54
2022/06/11 02:01:22;;;;;;;5.97;2.03;;;18.50;99.90;;;;;;5068083;28;20028;-55
2022/06/11 02:04:06;;;;;;;3.75;2.10;;;18.50;99.90;;;;;;5067964;28;20051;-57
2022/06/11 02:06:59;;;;;;;6.38;2.10;;;18.50;99.90;;;;;;5068485;28;20311;-53
2022/06/11 02:09:56;;;;;;;4.80;2.15;;;18.40;99.90;;;;;;5069345;28;20031;-54
2022/06/11 02:12:48;;;;;;;6.18;2.22;;;18.40;99.90;;;;;;5067851;28;20033;-55
2022/06/11 02:15:30;;;;;;;6.40;2.17;;;18.40;99.90;;;;;;5065427;28;20100;-54
2022/06/11 02:18:01;;;;;;;6.75;2.00;;;18.40;99.90;;;;;;5069042;28;20039;-56
2022/06/11 02:20:32;;;;;;;7.13;2.33;;;18.40;99.90;;;;;;5067024;28;20032;-56
2022/06/11 02:23:11;;;;;;;4.70;1.85;;;18.30;99.90;;;;;;5061658;28;20074;-54
2022/06/11 02:25:42;;;;;;;6.55;2.10;;;18.40;99.90;;;;;;5067845;28;20017;-54
2022/06/11 02:28:13;;;;;;;6.13;1.73;;;18.30;99.90;;;;;;5064714;28;20115;-56
2022/06/11 02:30:42;;;;;;;3.53;1.83;;;18.30;99.90;;;;;;5066468;28;20028;-54
2022/06/11 02:33:10;;;;;;;7.35;2.80;;;18.30;99.90;;;;;;5071013;28;20569;-55
2022/06/11 02:35:38;;;;;;;10.32;2.55;;;18.30;99.90;;;;;;5069161;28;20162;-54
2022/06/11 02:38:08;;;;;;;7.35;2.42;;;18.20;99.90;;;;;;5068680;28;20020;-54
2022/06/11 02:40:40;;;;;;;6.57;2.20;;;18.20;99.90;;;;;;5065677;28;20044;-58
2022/06/11 02:43:05;;;;;;;9.85;2.22;;;18.10;99.90;;;;;;5069765;28;20422;-56
2022/06/11 02:45:31;;;;;;;4.90;2.58;;;18.10;99.90;;;;;;5067199;28;20025;-57
2022/06/11 02:47:56;;;;;;;6.82;2.67;;;18.10;99.90;;;;;;5066847;28;20071;-55
2022/06/11 02:50:29;;;;;;;3.78;2.15;;;18.10;99.90;;;;;;5067387;28;20028;-54
2022/06/11 02:52:56;;;;;;;5.47;2.63;;;18.00;99.90;;;;;;5067436;28;20109;-55
2022/06/11 02:55:23;;;;;;;5.80;2.75;;;18.10;99.90;;;;;;5069279;28;20028;-55
2022/06/11 02:57:49;;;;;;;6.57;2.70;;;18.00;99.90;;;;;;5048162;28;20059;-53
2022/06/11 03:00:19;;;;;;;9.13;2.65;;;18.00;99.90;;;;;;5066617;28;20052;-56
2022/06/11 03:02:47;;;;;;;8.25;2.95;;;18.00;99.90;;;;;;5066794;28;20028;-57
2022/06/11 03:05:14;;;;;;;5.85;3.10;;;18.00;99.90;;;;;;5065517;28;20025;-56
2022/06/11 03:07:40;;;;;;;7.20;3.00;;;17.90;99.90;;;;;;5067861;28;20451;-58
2022/06/11 03:10:05;;;;;;;4.70;2.72;;;17.90;99.90;;;;;;5062547;28;20676;-56
2022/06/11 03:12:31;;;;;;;8.70;2.63;;;17.90;99.90;;;;;;5064578;28;20028;-57
2022/06/11 03:14:56;;;;;;;3.97;2.53;;;18.00;99.90;;;;;;5073278;28;20035;-56
2022/06/11 03:17:22;;;;;;;4.50;2.58;;;18.00;99.90;;;;;;5070621;28;20398;-54
2022/06/11 03:19:49;;;;;;;7.78;2.97;;;17.90;99.90;;;;;;5070503;28;20024;-55
2022/06/11 03:22:17;;;;;;;5.93;2.55;;;17.90;99.90;;;;;;5071952;28;20585;-57
2022/06/11 03:24:42;;;;;;;3.15;2.15;;;17.90;99.90;;;;;;5072425;28;20028;-55
2022/06/11 03:27:08;;;;;;;7.22;2.53;;;17.90;99.90;;;;;;5075028;28;20025;-57
2022/06/11 03:29:34;;;;;;;6.00;2.60;;;17.90;99.90;;;;;;5070814;28;20083;-56
2022/06/11 03:32:00;;;;;;;6.95;2.60;;;17.80;99.90;;;;;;5073191;28;20044;-58
2022/06/11 03:34:26;;;;;;;4.88;2.92;;;17.80;99.90;;;;;;5073759;28;20095;-57
2022/06/11 03:36:52;;;;;;;4.25;2.20;;;17.80;99.90;;;;;;5069645;28;20098;-58
2022/06/11 03:39:18;;;;;;;6.72;2.50;;;17.80;99.90;;;;;;5077744;28;20028;-53
2022/06/11 03:41:45;;;;;;;6.60;2.58;;;17.80;99.90;;;;;;5071960;28;20036;-57
2022/06/11 03:44:11;;;;;;;12.20;3.00;;;17.80;99.90;;;;;;5070811;28;20112;-58
2022/06/11 03:46:37;;;;;;;9.25;2.92;;;17.70;99.90;;;;;;5094729;22;20040;-54
2022/06/11 03:49:03;;;;;;;5.68;2.83;;;17.70;99.90;;;;;;5082870;28;20032;-55
2022/06/11 03:51:29;;;;;;;6.05;3.00;;;17.80;99.90;;;;;;5088077;28;20118;-53
2022/06/11 03:53:55;;;;;;;8.02;2.60;;;17.80;99.90;;;;;;5091295;28;20024;-54
2022/06/11 03:56:20;;;;;;;8.05;3.03;;;17.80;99.90;;;;;;5086053;28;20028;-52
2022/06/11 03:58:49;;;;;;;3.85;2.30;;;17.70;99.90;;;;;;5075024;28;20029;-54
2022/06/11 04:01:16;;;;;;;3.65;2.38;;;17.80;99.90;;;;;;5072350;28;20021;-53
2022/06/11 04:03:54;;;;;;;7.88;2.42;;;17.80;99.90;;;;;;5071833;28;20134;-56
2022/06/11 04:06:29;;;;;;;8.85;2.40;;;17.80;99.90;;;;;;5070417;28;20028;-58
2022/06/11 04:08:54;;;;;;;8.07;2.95;;;17.80;99.90;;;;;;5074610;28;20029;-54
2022/06/11 04:11:21;;;;;;;6.30;2.65;;;17.80;99.90;;;;;;5080460;28;20040;-56
2022/06/11 04:13:49;;;;;;;8.27;2.55;;;17.80;99.90;;;;;;5074853;28;20065;-56
2022/06/11 04:16:24;;;;;;;4.38;2.33;;;17.90;99.90;;;;;;5073262;28;20483;-55
2022/06/11 04:18:51;;;;;;;4.40;2.72;;;17.90;99.90;;;;;;5071565;28;20032;-54
2022/06/11 04:21:17;;;;;;;9.30;3.00;;;17.90;99.90;;;;;;5072792;28;20062;-57
2022/06/11 04:23:47;;;;;;;5.55;2.45;;;17.90;99.90;;;;;;5072668;28;20094;-57
2022/06/11 04:26:17;;;;;;;5.90;3.10;;;17.90;99.90;;;;;;5073088;28;20062;-56
2022/06/11 04:28:42;;;;;;;3.55;2.58;;;17.90;99.90;;;;;;5070483;28;20055;-58
2022/06/11 04:31:09;;;;;;;11.45;3.13;;;18.00;99.90;;;;;;5074585;28;20067;-56
2022/06/11 04:33:35;;;;;;;4.70;2.28;;;18.00;99.90;;;;;;5071420;28;20028;-53
2022/06/11 04:36:03;;;;;;;5.28;2.35;;;18.00;99.90;;;;;;5070359;28;20047;-57
2022/06/11 04:38:28;;;;;;;5.10;2.17;;;18.00;99.90;;;;;;5073062;28;20396;-59
2022/06/11 04:40:54;;;;;;;5.38;2.63;;;18.00;99.90;;;;;;5073787;28;20028;-57
2022/06/11 04:43:20;;;;;;;5.13;2.63;;;18.00;99.90;;;;;;5065823;28;20025;-58
2022/06/11 04:45:46;;;;;;;5.43;2.80;;;18.10;99.90;;;;;;5077577;28;20063;-57
2022/06/11 04:48:12;;;;;;;4.47;2.33;;;18.10;99.90;;;;;;5073650;28;20107;-54
2022/06/11 04:50:38;;;;;;;8.60;2.53;;;18.10;99.90;;;;;;5072453;28;20486;-58
2022/06/11 04:53:04;;;;;;;4.60;2.47;;;18.20;99.90;;;;;;5076775;28;20478;-57
2022/06/11 04:55:29;;;;;;;6.55;2.97;;;18.30;99.90;;;;;;5067987;28;20025;-55
2022/06/11 04:57:55;;;;;;;9.05;2.78;;;18.30;99.90;;;;;;5074866;28;20028;-54
2022/06/11 05:00:25;;;;;;;5.65;2.55;;;18.30;99.90;;;;;;5072743;28;20037;-55
2022/06/11 05:02:51;;;;;;;5.20;2.70;;;18.40;99.90;;;;;;5070450;28;20020;-61
2022/06/11 05:05:17;;;;;;;11.48;2.00;;;18.40;99.90;;;;;;5076891;28;20036;-58
2022/06/11 05:07:44;;;;;;;4.78;2.10;;;18.50;99.90;;;;;;5073716;28;20025;-57
2022/06/11 05:10:11;;;;;;;5.53;2.42;;;18.60;99.90;;;;;;5079062;28;20192;-57
2022/06/11 05:12:37;;;;;;;5.55;2.58;;;18.60;99.90;;;;;;5076132;28;20025;-55
2022/06/11 05:15:03;;;;;;;7.10;2.60;;;18.70;99.90;;;;;;5073465;28;20585;-58
2022/06/11 05:17:29;;;;;;;7.82;3.00;;;18.70;99.90;;;;;;5072059;28;20025;-60
2022/06/11 05:19:54;;;;;;;4.90;2.28;;;18.80;99.90;;;;;;5075274;28;20082;-56
2022/06/11 05:22:20;;;;;;;7.40;2.63;;;18.80;99.90;;;;;;5072499;28;20032;-57
2022/06/11 05:24:45;;;;;;;9.77;2.80;;;18.90;99.90;;;;;;5073199;28;20031;-56
2022/06/11 05:27:21;;;;;;;3.15;2.47;;;19.00;99.90;;;;;;5072139;28;20037;-55
2022/06/11 05:30:07;;;;;;;4.93;2.58;;;19.00;99.90;;;;;;5071599;28;20495;-51
2022/06/11 05:32:37;;;;;;;7.28;2.90;;;19.10;99.90;;;;;;5069719;28;20066;-56
2022/06/11 05:35:06;;;;;;;6.47;2.75;;;19.10;99.90;;;;;;5071718;28;20024;-53
2022/06/11 05:37:32;;;;;;;4.78;2.17;;;19.20;99.90;;;;;;5070082;28;20969;-56
2022/06/11 05:39:57;;;;;;;6.05;2.50;;;19.20;99.90;;;;;;5070658;28;20115;-55
2022/06/11 05:42:25;;;;;;;8.65;2.58;;;19.30;99.90;;;;;;5075275;28;20431;-56
2022/06/11 05:44:52;;;;;;;5.30;2.30;;;19.40;99.90;;;;;;5071552;28;20028;-54
2022/06/11 05:47:22;;;;;;;8.75;2.38;;;19.40;99.90;;;;;;5071194;28;20035;-54
2022/06/11 05:49:52;;;;;;;5.15;2.13;;;19.40;99.90;;;;;;5076637;28;20517;-51
2022/06/11 05:52:25;;;;;;;9.43;2.58;;;19.50;99.90;;;;;;5071633;28;20028;-51
2022/06/11 05:54:51;;;;;;;7.35;2.63;;;19.50;99.90;;;;;;5075768;28;20436;-51
2022/06/11 05:57:21;;;;;;;3.45;2.25;;;19.50;99.90;;;;;;5069066;28;20375;-56
2022/06/11 05:59:52;;;;;;;6.75;2.25;;;19.60;99.90;;;;;;5069008;28;20047;-55
2022/06/11 06:02:20;;;;;;;5.75;2.72;;;19.70;99.90;;;;;;5067583;28;20028;-57
2022/06/11 06:04:46;;;;;;;9.27;2.72;;;19.70;99.90;;;;;;5069393;28;20074;-54
2022/06/11 06:07:12;;;;;;;8.27;2.22;;;19.80;99.90;;;;;;5068511;28;20404;-58
2022/06/11 06:09:38;;;;;;;6.75;2.33;;;19.90;99.90;;;;;;5069479;28;20039;-55
2022/06/11 06:12:04;;;;;;;6.85;2.42;;;19.90;99.90;;;;;;5069553;28;20028;-55
2022/06/11 06:14:30;;;;;;;4.50;2.22;;;20.00;99.90;;;;;;5069696;28;20028;-56
2022/06/11 06:16:56;;;;;;;8.90;2.67;;;20.00;99.90;;;;;;5070035;28;20020;-52
2022/06/11 06:19:21;;;;;;;7.28;2.72;;;20.10;99.90;;;;;;5072087;28;20024;-54
2022/06/11 06:21:47;;;;;;;5.40;2.63;;;20.20;99.90;;;;;;5069523;28;20029;-56
2022/06/11 06:24:13;;;;;;;5.32;1.92;;;20.20;99.90;;;;;;5076531;28;20067;-53
2022/06/11 06:26:39;;;;;;;4.10;1.95;;;20.30;99.90;;;;;;5070583;28;20040;-56
2022/06/11 06:29:05;;;;;;;7.63;2.00;;;20.40;99.90;;;;;;5064802;28;20032;-51
2022/06/11 06:31:31;;;;;;;7.75;2.60;;;20.40;99.90;;;;;;5069868;28;20043;-53
2022/06/11 06:33:59;;;;;;;10.07;2.15;;;20.50;99.90;;;;;;5073782;28;20020;-50
2022/06/11 06:36:25;;;;;;;5.82;2.08;;;20.60;99.90;;;;;;5068981;28;20482;-51
2022/06/11 06:38:52;;;;;;;11.57;2.67;;;20.50;99.90;;;;;;5064936;28;20028;-53
2022/06/11 06:41:18;;;;;;;7.05;3.08;;;20.50;99.90;;;;;;5071087;28;20035;-50
2022/06/11 06:43:44;;;;;;;6.55;2.42;;;20.50;99.90;;;;;;5067694;28;20077;-55
2022/06/11 06:46:10;;;;;;;7.95;2.30;;;20.60;99.90;;;;;;5065603;28;20505;-50
2022/06/11 06:48:36;;;;;;;11.63;2.58;;;20.70;99.90;;;;;;5067645;28;20032;-52
2022/06/11 06:51:02;;;;;;;8.52;2.67;;;20.80;99.90;;;;;;5068777;28;20040;-55
2022/06/11 06:53:29;;;;;;;11.10;3.08;;;20.90;99.90;;;;;;5069301;28;20020;-53
2022/06/11 06:55:55;;;;;;;9.23;3.35;;;21.00;99.90;;;;;;5067228;28;20029;-53
2022/06/11 06:58:21;;;;;;;9.88;3.25;;;21.10;99.90;;;;;;5069228;28;20024;-54
2022/06/11 07:00:46;;;;;;;10.98;3.55;;;21.00;99.90;;;;;;5068327;28;20387;-51
2022/06/11 07:03:13;;;;;;;10.50;2.92;;;20.90;99.90;;;;;;5068671;28;20029;-55
2022/06/11 07:05:39;;;;;;;10.80;3.78;;;20.90;99.90;;;;;;5068617;28;20081;-54
2022/06/11 07:08:06;;;;;;;10.63;4.45;;;21.00;99.90;;;;;;5068338;28;20371;-53
2022/06/11 07:10:33;;;;;;;15.60;4.05;;;21.00;99.90;;;;;;5065256;28;20086;-53
2022/06/11 07:12:59;;;;;;;9.10;3.53;;;21.00;99.90;;;;;;5069299;28;20455;-57
2022/06/11 07:15:25;;;;;;;7.13;2.47;;;21.20;99.90;;;;;;5067267;28;20379;-56
2022/06/11 07:17:57;;;;;;;5.47;2.47;;;21.20;99.90;;;;;;5065612;28;20035;-58
2022/06/11 07:20:27;;;;;;;7.40;2.22;;;21.20;99.90;;;;;;5062970;28;20518;-58
2022/06/11 07:23:02;;;;;;;5.40;2.10;;;21.40;99.90;;;;;;5068442;28;20514;-53
2022/06/11 07:25:29;;;;;;;5.15;2.08;;;21.50;99.90;;;;;;5069308;28;20063;-55
2022/06/11 07:28:05;;;;;;;7.72;2.30;;;21.60;99.90;;;;;;5066487;28;20112;-53
2022/06/11 07:30:35;;;;;;;7.85;2.75;;;21.50;99.90;;;;;;5068396;28;20082;-52
2022/06/11 07:33:07;;;;;;;3.83;1.77;;;21.50;99.90;;;;;;5068234;28;20035;-55
2022/06/11 07:35:35;;;;;;;6.05;2.15;;;21.40;99.90;;;;;;5067230;28;20101;-57
2022/06/11 07:38:02;;;;;;;6.95;2.15;;;21.50;99.90;;;;;;5068560;28;20024;-58
2022/06/11 07:40:27;;;;;;;7.45;1.95;;;21.50;99.90;;;;;;5065188;28;20048;-55
2022/06/11 07:42:53;;;;;;;4.88;1.80;;;21.50;99.90;;;;;;5068217;28;20494;-51
2022/06/11 07:45:18;;;;;;;6.63;1.88;;;21.50;99.90;;;;;;5069169;28;20035;-53
2022/06/11 07:47:53;;;;;;;5.80;1.70;;;21.40;99.90;;;;;;5068346;28;20673;-52
2022/06/11 07:50:22;;;;;;;8.07;2.00;;;21.50;99.90;;;;;;5068645;28;20105;-56
2022/06/11 07:52:48;;;;;;;5.20;2.30;;;21.60;99.90;;;;;;5062004;28;20024;-51
2022/06/11 07:55:14;;;;;;;4.82;2.03;;;21.70;99.90;;;;;;5060591;28;20024;-51
2022/06/11 07:57:39;;;;;;;5.50;2.17;;;21.60;99.90;;;;;;5062658;28;20044;-54
2022/06/11 08:00:08;;;;;;;5.03;1.85;;;21.50;99.90;;;;;;5062942;28;20544;-52
2022/06/11 08:02:34;;;;;;;7.18;2.25;;;21.60;99.90;;;;;;5067462;28;20024;-52
2022/06/11 08:04:59;;;;;;;5.25;1.90;;;21.80;99.90;;;;;;5062491;28;20547;-55
2022/06/11 08:07:27;;;;;;;7.88;2.25;;;21.90;99.90;;;;;;5068309;28;20422;-52
2022/06/11 08:09:53;;;;;;;5.80;1.88;;;22.00;99.90;;;;;;5071604;28;20038;-53
2022/06/11 08:12:19;;;;;;;4.90;1.88;;;22.10;99.90;;;;;;5071566;28;20028;-57
2022/06/11 08:14:44;;;;;;;3.60;2.20;;;22.20;99.90;;;;;;5071685;28;20082;-52
2022/06/11 08:17:10;;;;;;;4.25;1.70;;;22.20;99.90;;;;;;5068678;28;20078;-50
2022/06/11 08:19:36;;;;;;;2.38;1.65;;;22.10;99.90;;;;;;5071067;28;20697;-54
2022/06/11 08:22:02;;;;;;;5.47;2.03;;;22.10;99.90;;;;;;5067739;28;20050;-55
2022/06/11 08:24:27;;;;;;;6.78;2.35;;;21.90;99.90;;;;;;5063068;28;20032;-51
2022/06/11 08:26:53;;;;;;;5.28;1.95;;;21.90;99.90;;;;;;5070186;28;20478;-56
2022/06/11 08:29:18;;;;;;;4.70;1.48;;;21.90;99.90;;;;;;5070666;28;20032;-52
2022/06/11 08:31:44;;;;;;;2.70;1.63;;;21.80;99.90;;;;;;5066733;28;20513;-51
2022/06/11 08:34:10;;;;;;;4.97;1.58;;;21.90;99.90;;;;;;5069537;28;20026;-57
2022/06/11 08:36:35;;;;;;;6.68;2.10;;;22.00;99.90;;;;;;5067379;28;20097;-56
2022/06/11 08:39:01;;;;;;;3.60;1.90;;;22.00;99.90;;;;;;5069227;28;20091;-57
2022/06/11 08:41:33;;;;;;;2.55;1.88;;;22.00;99.90;;;;;;5067165;28;20386;-56
2022/06/11 08:44:08;;;;;;;4.40;2.17;;;22.00;99.90;;;;;;5061974;28;20108;-58
2022/06/11 08:46:38;;;;;;;2.05;1.77;;;22.10;99.90;;;;;;5066812;28;20406;-58
2022/06/11 08:49:04;;;;;;;4.70;1.95;;;22.30;99.90;;;;;;5067910;28;20042;-58
2022/06/11 08:51:44;;;;;;;5.53;1.98;;;22.40;99.90;;;;;;5051009;28;20028;-54
2022/06/11 08:54:41;;;;;;;7.90;2.33;;;22.50;99.90;;;;;;5064215;28;20036;-52
2022/06/11 08:57:34;;;;;;;3.95;1.85;;;22.50;99.90;;;;;;5048900;28;20037;-57
2022/06/11 09:00:12;;;;;;;4.28;1.75;;;22.60;99.90;;;;;;5064078;28;20547;-56
2022/06/11 09:03:03;;;;;;;5.47;2.03;;;22.50;99.90;;;;;;5064997;28;20041;-56
2022/06/11 09:05:31;;;;;;;3.15;1.60;;;22.60;99.90;;;;;;5069877;28;20078;-52
2022/06/11 09:08:22;;;;;;;9.85;2.25;;;22.50;99.90;;;;;;5066711;28;20028;-54
2022/06/11 09:11:06;;;;;;;1.70;1.30;;;22.60;99.90;;;;;;5071574;28;20024;-56
2022/06/11 09:13:34;;;;;;;3.63;1.77;;;22.60;99.90;;;;;;5066119;28;20036;-55
2022/06/11 09:16:20;;;;;;;4.63;1.80;;;22.80;99.90;;;;;;5068189;28;20065;-58
2022/06/11 09:18:52;;;;;;;3.90;1.70;;;22.90;99.90;;;;;;5067735;28;20542;-57
2022/06/11 09:21:39;;;;;;;7.60;2.42;;;22.70;99.90;;;;;;5072695;28;20038;-56
2022/06/11 09:24:29;;;;;;;6.15;2.00;;;22.60;99.90;;;;;;5065087;28;20035;-55
2022/06/11 09:27:11;;;;;;;4.63;1.67;;;22.40;99.90;;;;;;5066517;28;20024;-58
2022/06/11 09:29:51;;;;;;;4.30;1.70;;;22.50;99.90;;;;;;5065328;28;20060;-54
2022/06/11 09:32:20;;;;;;;3.97;1.88;;;22.70;99.90;;;;;;5067347;28;20033;-57
2022/06/11 09:34:50;;;;;;;2.65;1.60;;;22.90;99.90;;;;;;5068394;28;20030;-55
2022/06/11 09:37:40;;;;;;;1.52;1.42;;;23.00;99.90;;;;;;5066887;28;20493;-58
2022/06/11 09:40:43;;;;;;;6.15;1.33;;;23.20;99.90;;;;;;5065593;28;20391;-57
2022/06/11 09:43:18;;;;;;;3.03;1.30;;;23.30;99.90;;;;;;5004297;28;20059;-58
2022/06/11 09:46:00;;;;;;;4.68;2.00;;;23.10;99.90;;;;;;5067498;28;20021;-58
2022/06/11 09:48:49;;;;;;;8.00;2.67;;;23.20;99.90;;;;;;5064655;28;20441;-57
2022/06/11 09:51:38;;;;;;;6.22;2.15;;;23.20;99.90;;;;;;5065562;28;20029;-57
2022/06/11 09:54:25;;;;;;;6.68;2.38;;;22.90;99.90;;;;;;5066496;28;20032;-56
2022/06/11 09:57:29;;;;;;;10.07;2.40;;;22.90;99.90;;;;;;5066041;28;20633;-57
2022/06/11 10:00:24;;;;;;;7.78;3.53;;;23.00;99.90;;;;;;5060289;28;20051;-57
2022/06/11 10:02:57;;;;;;;7.43;2.95;;;23.00;99.90;;;;;;5061072;28;20032;-58
2022/06/11 10:05:47;;;;;;;5.95;2.65;;;23.00;99.90;;;;;;5068261;28;20025;-58
2022/06/11 10:08:35;;;;;;;7.28;2.97;;;22.80;99.90;;;;;;5064397;28;20085;-53
2022/06/11 10:11:04;;;;;;;4.97;2.28;;;22.60;99.90;;;;;;5059158;28;20031;-54
2022/06/11 10:13:55;;;;;;;6.10;2.17;;;22.50;99.90;;;;;;5059935;28;20025;-58
2022/06/11 10:16:23;;;;;;;6.53;2.40;;;22.50;99.90;;;;;;5063882;28;20494;-57
2022/06/11 10:18:51;;;;;;;3.88;2.35;;;22.50;99.90;;;;;;5065111;28;20055;-55
2022/06/11 10:21:19;;;;;;;6.43;2.78;;;22.60;99.90;;;;;;5065524;28;20025;-51
2022/06/11 10:24:01;;;;;;;5.55;2.17;;;22.50;99.90;;;;;;5067933;28;20100;-57
2022/06/11 10:26:32;;;;;;;5.40;2.63;;;22.60;99.90;;;;;;5060171;28;20025;-53
2022/06/11 10:29:11;;;;;;;6.32;2.33;;;22.80;99.90;;;;;;5063473;28;20053;-56
2022/06/11 10:31:53;;;;;;;7.88;2.38;;;23.30;99.90;;;;;;5067411;28;20032;-56
2022/06/11 10:34:25;;;;;;;6.05;2.42;;;23.90;99.90;;;;;;5068068;28;20040;-59
2022/06/11 10:37:04;;;;;;;7.05;3.17;;;24.10;99.90;;;;;;5066415;28;20017;-54
2022/06/11 10:39:38;;;;;;;6.10;2.30;;;24.10;99.90;;;;;;5066140;28;20032;-52
2022/06/11 10:42:11;;;;;;;5.03;2.53;;;24.30;99.90;;;;;;5063376;28;20048;-51
2022/06/11 10:44:38;;;;;;;4.63;2.45;;;24.60;99.90;;;;;;5064851;28;20039;-55
2022/06/11 10:47:13;;;;;;;9.30;3.05;;;24.60;99.90;;;;;;5062364;28;20036;-55
2022/06/11 10:49:39;;;;;;;14.52;2.72;;;24.60;99.90;;;;;;5066199;28;20032;-55
2022/06/11 10:52:40;;;;;;;7.60;3.03;;;24.30;99.90;;;;;;5072614;28;20029;-55
2022/06/11 10:55:10;;;;;;;4.30;2.28;;;24.40;99.90;;;;;;5043550;28;20043;-50
2022/06/11 10:57:37;;;;;;;5.68;2.70;;;24.70;99.90;;;;;;5067309;28;20053;-51
2022/06/11 11:00:16;;;;;;;8.70;2.50;;;24.90;99.90;;;;;;5061622;28;20047;-56
2022/06/11 11:02:50;;;;;;;5.82;2.17;;;24.90;99.90;;;;;;5066682;28;20036;-51
2022/06/11 11:05:18;;;;;;;10.25;2.83;;;24.80;99.90;;;;;;5063756;28;20427;-51
2022/06/11 11:07:59;;;;;;;4.75;2.35;;;24.80;99.90;;;;;;5059263;28;20424;-54
2022/06/11 11:10:37;;;;;;;3.60;2.13;;;25.10;99.90;;;;;;5064330;28;20025;-53
2022/06/11 11:13:15;;;;;;;4.22;2.17;;;25.30;99.90;;;;;;5066456;28;20025;-52
2022/06/11 11:15:45;;;;;;;3.33;2.20;;;25.50;99.90;;;;;;5067068;28;20051;-55
2022/06/11 11:18:55;;;;;;;3.85;2.20;;;25.80;99.90;;;;;;5069659;28;20512;-56
2022/06/11 11:21:48;;;;;;;3.83;2.10;;;25.90;99.90;;;;;;5034270;28;20526;-56
2022/06/11 11:24:19;;;;;;;7.63;2.20;;;25.70;99.90;;;;;;5064817;28;20147;-53
2022/06/11 11:26:58;;;;;;;5.38;2.10;;;25.50;99.90;;;;;;5071057;28;20032;-57
2022/06/11 11:29:30;;;;;;;4.68;2.25;;;25.60;99.90;;;;;;5065043;28;20025;-59
2022/06/11 11:32:06;;;;;;;2.25;1.77;;;25.40;99.90;;;;;;5066514;28;20028;-55
2022/06/11 11:34:43;;;;;;;3.30;2.00;;;24.80;99.90;;;;;;5064023;28;20060;-52
2022/06/11 11:37:12;;;;;;;4.93;2.20;;;24.80;99.90;;;;;;5064191;28;20043;-56
2022/06/11 11:39:37;;;;;;;5.07;2.20;;;24.90;99.90;;;;;;5063860;28;20032;-59
2022/06/11 11:42:11;;;;;;;6.60;1.80;;;24.90;99.90;;;;;;5067449;28;20028;-56
2022/06/11 11:44:49;;;;;;;4.85;2.15;;;25.10;99.90;;;;;;5066160;28;20693;-56
2022/06/11 11:47:34;;;;;;;8.52;1.88;;;25.40;99.90;;;;;;5064625;28;20113;-57
2022/06/11 11:50:28;;;;;;;3.42;2.00;;;25.20;99.90;;;;;;5061487;28;20055;-55
2022/06/11 11:53:03;;;;;;;6.03;1.90;;;25.20;99.90;;;;;;5061585;28;20045;-60
2022/06/11 11:55:32;;;;;;;6.47;2.20;;;24.80;99.90;;;;;;5071431;28;20017;-56
2022/06/11 11:58:06;;;;;;;4.18;1.63;;;25.10;99.90;;;;;;5067007;28;20044;-59
2022/06/11 12:00:41;;;;;;;3.83;1.70;;;25.60;99.90;;;;;;5069572;28;20490;-57
2022/06/11 12:03:20;;;;;;;2.45;1.67;;;25.50;99.90;;;;;;5062862;28;20024;-58
2022/06/11 12:05:55;;;;;;;2.47;1.55;;;25.50;99.90;;;;;;5068904;28;20029;-58
2022/06/11 12:08:32;;;;;;;5.13;2.15;;;25.50;99.90;;;;;;5068239;28;20028;-54
2022/06/11 12:11:00;;;;;;;3.50;1.77;;;25.40;99.90;;;;;;5068212;28;20031;-57
2022/06/11 12:13:26;;;;;;;4.28;1.90;;;25.50;99.90;;;;;;5069335;28;20111;-57
2022/06/11 12:15:56;;;;;;;3.10;1.80;;;25.90;99.90;;;;;;5074543;28;20573;-58
2022/06/11 12:18:28;;;;;;;6.75;2.97;;;25.80;99.90;;;;;;5066549;28;20058;-58
2022/06/11 12:20:59;;;;;;;3.88;2.90;;;25.30;99.90;;;;;;5067362;28;20136;-57
2022/06/11 12:23:34;;;;;;;6.75;3.20;;;24.90;99.90;;;;;;5067550;28;20099;-57
2022/06/11 12:26:25;;;;;;;5.13;2.85;;;24.70;99.90;;;;;;5067822;28;20040;-55
2022/06/11 12:29:05;;;;;;;7.10;3.28;;;24.60;99.90;;;;;;5064861;28;20107;-52
2022/06/11 12:31:32;;;;;;;4.45;3.17;;;24.60;99.90;;;;;;5067745;28;20021;-55
2022/06/11 12:33:58;;;;;;;3.30;2.63;;;24.80;99.90;;;;;;5070280;28;20032;-56
2022/06/11 12:36:40;;;;;;;6.88;3.15;;;24.80;99.90;;;;;;5065557;28;20021;-55
2022/06/11 12:39:46;;;;;;;6.63;2.97;;;24.80;99.90;;;;;;5064055;28;20117;-55
2022/06/11 12:42:34;;;;;;;4.82;3.15;;;24.90;99.90;;;;;;5058358;28;20032;-57
2022/06/11 12:45:20;;;;;;;5.03;3.47;;;25.30;99.90;;;;;;5069990;28;20017;-56
2022/06/11 12:48:04;;;;;;;4.75;3.00;;;25.80;99.90;;;;;;5069750;28;20032;-56
2022/06/11 12:51:03;;;;;;;6.20;3.58;;;26.10;99.90;;;;;;5066560;28;20509;-56
2022/06/11 12:53:53;;;;;;;5.93;3.75;;;26.30;99.90;;;;;;5062035;28;20025;-57
2022/06/11 12:57:02;;;;;;;7.70;3.80;;;26.30;99.90;;;;;;5063733;28;20687;-56
2022/06/11 12:59:41;;;;;;;5.18;3.22;;;26.10;99.90;;;;;;5062649;28;20025;-58
2022/06/11 13:02:20;;;;;;;6.18;3.22;;;25.60;99.90;;;;;;5063244;28;20032;-59
2022/06/11 13:05:23;;;;;;;6.03;2.92;;;25.50;99.90;;;;;;5064280;28;20036;-57
2022/06/11 13:08:07;;;;;;;4.18;2.45;;;25.50;99.90;;;;;;5065138;28;20088;-56
2022/06/11 13:10:47;;;;;;;5.07;2.90;;;26.00;99.90;;;;;;5066191;28;20024;-59
2022/06/11 13:13:47;;;;;;;3.15;2.50;;;26.00;99.90;;;;;;5063373;28;20286;-57
2022/06/11 13:16:28;;;;;;;4.72;2.80;;;26.50;99.90;;;;;;5062454;28;20022;-55